sensor_id;sensor_type;location;lat;lon;timestamp;temperature;humidity
2621;DHT22;1320;48.128;11.592;2023-03-01T00:01:18;3.80;99.90
2621;DHT22;1320;48.128;11.592;2023-03-01T00:03:45;3.80;99.90
2621;DHT22;1320;48.128;11.592;2023-03-01T00:06:11;3.90;99.90
2621;DHT22;1320;48.128;11.592;2023-03-01T00:08:37;3.90;99.90
2621;DHT22;1320;48.128;11.592;2023-03-01T00:13:40;3.90;99.90
2621;DHT22;1320;48.128;11.592;2023-03-01T00:16:09;3.90;99.90
2621;DHT22;1320;48.128;11.592;2023-03-01T00:18:35;3.90;99.90
2621;DHT22;1320;48.128;11.592;2023-03-01T00:21:01;3.90;99.90
2621;DHT22;1320;48.128;11.592;2023-03-01T00:23:27;3.90;99.90
2621;DHT22;1320;48.128;11.592;2023-03-01T00:25:53;3.80;99.90
2621;DHT22;1320;48.128;11.592;2023-03-01T00:28:20;3.90;99.90
2621;DHT22;1320;48.128;11.592;2023-03-01T00:30:46;3.90;99.90
2621;DHT22;1320;48.128;11.592;2023-03-01T00:33:12;3.90;99.90
2621;DHT22;1320;48.128;11.592;2023-03-01T00:35:38;3.90;99.90
2621;DHT22;1320;48.128;11.592;2023-03-01T00:38:04;3.90;99.90
2621;DHT22;1320;48.128;11.592;2023-03-01T00:40:33;3.90;99.90
2621;DHT22;1320;48.128;11.592;2023-03-01T00:42:59;3.80;99.90
2621;DHT22;1320;48.128;11.592;2023-03-01T00:45:25;3.80;99.90
2621;DHT22;1320;48.128;11.592;2023-03-01T00:47:51;3.80;99.90
2621;DHT22;1320;48.128;11.592;2023-03-01T00:50:17;3.80;99.90
2621;DHT22;1320;48.128;11.592;2023-03-01T00:52:43;3.70;99.90
2621;DHT22;1320;48.128;11.592;2023-03-01T00:55:09;3.70;99.90
2621;DHT22;1320;48.128;11.592;2023-03-01T00:57:35;3.70;99.90
2621;DHT22;1320;48.128;11.592;2023-03-01T01:00:01;3.70;99.90
2621;DHT22;1320;48.128;11.592;2023-03-01T01:02:28;3.70;99.90
2621;DHT22;1320;48.128;11.592;2023-03-01T01:04:54;3.70;99.90
2621;DHT22;1320;48.128;11.592;2023-03-01T01:07:19;3.70;99.90
2621;DHT22;1320;48.128;11.592;2023-03-01T01:09:48;3.70;99.90
2621;DHT22;1320;48.128;11.592;2023-03-01T01:12:13;3.70;99.90
2621;DHT22;1320;48.128;11.592;2023-03-01T01:14:39;3.70;99.90
2621;DHT22;1320;48.128;11.592;2023-03-01T01:17:05;3.70;99.90
2621;DHT22;1320;48.128;11.592;2023-03-01T01:19:30;3.70;99.90
2621;DHT22;1320;48.128;11.592;2023-03-01T01:21:56;3.70;99.90
2621;DHT22;1320;48.128;11.592;2023-03-01T01:24:22;3.70;99.90
2621;DHT22;1320;48.128;11.592;2023-03-01T01:26:47;3.60;99.90
2621;DHT22;1320;48.128;11.592;2023-03-01T01:29:13;3.60;99.90
2621;DHT22;1320;48.128;11.592;2023-03-01T01:31:40;3.60;99.90
2621;DHT22;1320;48.128;11.592;2023-03-01T01:34:08;3.60;99.90
2621;DHT22;1320;48.128;11.592;2023-03-01T01:36:37;3.60;99.90
2621;DHT22;1320;48.128;11.592;2023-03-01T01:39:02;3.60;99.90
2621;DHT22;1320;48.128;11.592;2023-03-01T01:41:29;3.60;99.90
2621;DHT22;1320;48.128;11.592;2023-03-01T01:44:20;3.60;99.90
2621;DHT22;1320;48.128;11.592;2023-03-01T01:46:49;3.60;99.90
2621;DHT22;1320;48.128;11.592;2023-03-01T01:51:43;3.60;99.90
2621;DHT22;1320;48.128;11.592;2023-03-01T01:54:14;3.60;99.90
2621;DHT22;1320;48.128;11.592;2023-03-01T01:56:44;3.60;99.90
2621;DHT22;1320;48.128;11.592;2023-03-01T01:59:11;3.60;99.90
2621;DHT22;1320;48.128;11.592;2023-03-01T02:01:37;3.60;99.90
2621;DHT22;1320;48.128;11.592;2023-03-01T02:04:03;3.60;99.90
2621;DHT22;1320;48.128;11.592;2023-03-01T02:06:35;3.60;99.90
2621;DHT22;1320;48.128;11.592;2023-03-01T02:09:06;3.60;99.90
2621;DHT22;1320;48.128;11.592;2023-03-01T02:11:33;3.60;99.90
2621;DHT22;1320;48.128;11.592;2023-03-01T02:13:59;3.60;99.90
2621;DHT22;1320;48.128;11.592;2023-03-01T02:16:26;3.60;99.90
2621;DHT22;1320;48.128;11.592;2023-03-01T02:18:52;3.50;99.90
2621;DHT22;1320;48.128;11.592;2023-03-01T02:24:17;3.50;99.90
2621;DHT22;1320;48.128;11.592;2023-03-01T02:26:53;3.60;99.90
2621;DHT22;1320;48.128;11.592;2023-03-01T02:29:21;3.60;99.90
2621;DHT22;1320;48.128;11.592;2023-03-01T02:31:48;3.60;99.90
2621;DHT22;1320;48.128;11.592;2023-03-01T02:34:21;3.60;99.90
2621;DHT22;1320;48.128;11.592;2023-03-01T02:36:55;3.60;99.90
2621;DHT22;1320;48.128;11.592;2023-03-01T02:39:48;3.60;99.90
2621;DHT22;1320;48.128;11.592;2023-03-01T02:42:18;3.60;99.90
2621;DHT22;1320;48.128;11.592;2023-03-01T02:44:48;3.60;99.90
2621;DHT22;1320;48.128;11.592;2023-03-01T02:47:14;3.60;99.90
2621;DHT22;1320;48.128;11.592;2023-03-01T02:49:39;3.50;99.90
2621;DHT22;1320;48.128;11.592;2023-03-01T02:54:41;3.50;99.90
2621;DHT22;1320;48.128;11.592;2023-03-01T02:57:10;3.40;99.90
2621;DHT22;1320;48.128;11.592;2023-03-01T02:59:36;3.40;99.90
2621;DHT22;1320;48.128;11.592;2023-03-01T03:02:06;3.40;99.90
2621;DHT22;1320;48.128;11.592;2023-03-01T03:04:31;3.40;99.90
2621;DHT22;1320;48.128;11.592;2023-03-01T03:06:57;3.40;99.90
2621;DHT22;1320;48.128;11.592;2023-03-01T03:09:22;3.50;99.90
2621;DHT22;1320;48.128;11.592;2023-03-01T03:11:48;3.50;99.90
2621;DHT22;1320;48.128;11.592;2023-03-01T03:14:15;3.50;99.90
2621;DHT22;1320;48.128;11.592;2023-03-01T03:16:47;3.50;99.90
2621;DHT22;1320;48.128;11.592;2023-03-01T03:19:13;3.50;99.90
2621;DHT22;1320;48.128;11.592;2023-03-01T03:21:39;3.50;99.90
2621;DHT22;1320;48.128;11.592;2023-03-01T03:24:05;3.40;99.90
2621;DHT22;1320;48.128;11.592;2023-03-01T03:26:31;3.40;99.90
2621;DHT22;1320;48.128;11.592;2023-03-01T03:28:57;3.40;99.90
2621;DHT22;1320;48.128;11.592;2023-03-01T03:31:23;3.30;99.90
2621;DHT22;1320;48.128;11.592;2023-03-01T03:33:49;3.30;99.90
2621;DHT22;1320;48.128;11.592;2023-03-01T03:36:16;3.30;99.90
2621;DHT22;1320;48.128;11.592;2023-03-01T03:38:43;3.30;99.90
2621;DHT22;1320;48.128;11.592;2023-03-01T03:41:11;3.30;99.90
2621;DHT22;1320;48.128;11.592;2023-03-01T03:43:38;3.30;99.90
2621;DHT22;1320;48.128;11.592;2023-03-01T03:46:04;3.30;99.90
2621;DHT22;1320;48.128;11.592;2023-03-01T03:48:38;3.20;99.90
2621;DHT22;1320;48.128;11.592;2023-03-01T03:51:05;3.20;99.90
2621;DHT22;1320;48.128;11.592;2023-03-01T03:53:31;3.20;99.90
2621;DHT22;1320;48.128;11.592;2023-03-01T03:55:57;3.20;99.90
2621;DHT22;1320;48.128;11.592;2023-03-01T03:58:24;3.20;99.90
2621;DHT22;1320;48.128;11.592;2023-03-01T04:00:54;3.10;99.90
2621;DHT22;1320;48.128;11.592;2023-03-01T04:03:25;3.10;99.90
2621;DHT22;1320;48.128;11.592;2023-03-01T04:05:51;3.00;99.90
2621;DHT22;1320;48.128;11.592;2023-03-01T04:08:21;3.00;99.90
2621;DHT22;1320;48.128;11.592;2023-03-01T04:10:50;3.00;99.90
2621;DHT22;1320;48.128;11.592;2023-03-01T04:13:21;3.00;99.90
2621;DHT22;1320;48.128;11.592;2023-03-01T04:15:52;2.90;99.90
2621;DHT22;1320;48.128;11.592;2023-03-01T04:18:19;3.00;99.90
2621;DHT22;1320;48.128;11.592;2023-03-01T04:20:45;2.90;99.90
2621;DHT22;1320;48.128;11.592;2023-03-01T04:23:15;2.90;99.90
2621;DHT22;1320;48.128;11.592;2023-03-01T04:26:02;2.90;99.90
2621;DHT22;1320;48.128;11.592;2023-03-01T04:28:33;2.90;99.90
2621;DHT22;1320;48.128;11.592;2023-03-01T04:31:03;2.90;99.90
2621;DHT22;1320;48.128;11.592;2023-03-01T04:36:08;2.90;99.90
2621;DHT22;1320;48.128;11.592;2023-03-01T04:38:35;2.80;99.90
2621;DHT22;1320;48.128;11.592;2023-03-01T04:41:06;2.80;99.90
2621;DHT22;1320;48.128;11.592;2023-03-01T04:43:32;2.80;99.90
2621;DHT22;1320;48.128;11.592;2023-03-01T04:46:04;2.80;99.90
2621;DHT22;1320;48.128;11.592;2023-03-01T04:48:30;2.70;99.90
2621;DHT22;1320;48.128;11.592;2023-03-01T04:50:57;2.70;99.90
2621;DHT22;1320;48.128;11.592;2023-03-01T04:53:23;2.70;99.90
2621;DHT22;1320;48.128;11.592;2023-03-01T04:55:50;2.70;99.90
2621;DHT22;1320;48.128;11.592;2023-03-01T04:58:16;2.70;99.90
2621;DHT22;1320;48.128;11.592;2023-03-01T05:00:42;2.70;99.90
2621;DHT22;1320;48.128;11.592;2023-03-01T05:03:08;2.70;99.90
2621;DHT22;1320;48.128;11.592;2023-03-01T05:05:38;2.70;99.90
2621;DHT22;1320;48.128;11.592;2023-03-01T05:08:07;2.80;99.90
2621;DHT22;1320;48.128;11.592;2023-03-01T05:10:34;2.70;99.90
2621;DHT22;1320;48.128;11.592;2023-03-01T05:13:02;2.60;99.90
2621;DHT22;1320;48.128;11.592;2023-03-01T05:15:29;2.60;99.90
2621;DHT22;1320;48.128;11.592;2023-03-01T05:17:57;2.60;99.90
2621;DHT22;1320;48.128;11.592;2023-03-01T05:20:25;2.60;99.90
2621;DHT22;1320;48.128;11.592;2023-03-01T05:22:53;2.60;99.90
2621;DHT22;1320;48.128;11.592;2023-03-01T05:25:20;2.50;99.90
2621;DHT22;1320;48.128;11.592;2023-03-01T05:27:47;2.50;99.90
2621;DHT22;1320;48.128;11.592;2023-03-01T05:30:14;2.40;99.90
2621;DHT22;1320;48.128;11.592;2023-03-01T05:32:50;2.40;99.90
2621;DHT22;1320;48.128;11.592;2023-03-01T05:35:21;2.40;99.90
2621;DHT22;1320;48.128;11.592;2023-03-01T05:37:48;2.40;99.90
2621;DHT22;1320;48.128;11.592;2023-03-01T05:40:17;2.40;99.90
2621;DHT22;1320;48.128;11.592;2023-03-01T05:42:54;2.30;99.90
2621;DHT22;1320;48.128;11.592;2023-03-01T05:45:21;2.40;99.90
2621;DHT22;1320;48.128;11.592;2023-03-01T05:47:48;2.40;99.90
2621;DHT22;1320;48.128;11.592;2023-03-01T05:52:49;2.40;99.90
2621;DHT22;1320;48.128;11.592;2023-03-01T05:55:17;2.40;99.90
2621;DHT22;1320;48.128;11.592;2023-03-01T05:57:43;2.30;99.90
2621;DHT22;1320;48.128;11.592;2023-03-01T06:00:11;2.40;99.90
2621;DHT22;1320;48.128;11.592;2023-03-01T06:02:37;2.40;99.90
2621;DHT22;1320;48.128;11.592;2023-03-01T06:05:05;2.30;99.90
2621;DHT22;1320;48.128;11.592;2023-03-01T06:07:31;2.30;99.90
2621;DHT22;1320;48.128;11.592;2023-03-01T06:09:57;2.30;99.90
2621;DHT22;1320;48.128;11.592;2023-03-01T06:12:22;2.30;99.90
2621;DHT22;1320;48.128;11.592;2023-03-01T06:14:48;2.30;99.90
2621;DHT22;1320;48.128;11.592;2023-03-01T06:17:14;2.20;99.90
2621;DHT22;1320;48.128;11.592;2023-03-01T06:19:39;2.20;99.90
2621;DHT22;1320;48.128;11.592;2023-03-01T06:22:05;2.20;99.90
2621;DHT22;1320;48.128;11.592;2023-03-01T06:24:31;2.20;99.90
2621;DHT22;1320;48.128;11.592;2023-03-01T06:26:56;2.20;99.90
2621;DHT22;1320;48.128;11.592;2023-03-01T06:29:22;2.20;99.90
2621;DHT22;1320;48.128;11.592;2023-03-01T06:31:48;2.20;99.90
2621;DHT22;1320;48.128;11.592;2023-03-01T06:34:14;2.20;99.90
2621;DHT22;1320;48.128;11.592;2023-03-01T06:36:40;2.20;99.90
2621;DHT22;1320;48.128;11.592;2023-03-01T06:39:06;2.20;99.90
2621;DHT22;1320;48.128;11.592;2023-03-01T06:41:32;2.20;99.90
2621;DHT22;1320;48.128;11.592;2023-03-01T06:43:59;2.20;99.90
2621;DHT22;1320;48.128;11.592;2023-03-01T06:46:24;2.10;99.90
2621;DHT22;1320;48.128;11.592;2023-03-01T06:48:50;2.10;99.90
2621;DHT22;1320;48.128;11.592;2023-03-01T06:51:16;2.10;99.90
2621;DHT22;1320;48.128;11.592;2023-03-01T06:53:41;2.10;99.90
2621;DHT22;1320;48.128;11.592;2023-03-01T06:56:07;2.10;99.90
2621;DHT22;1320;48.128;11.592;2023-03-01T06:58:33;2.20;99.90
2621;DHT22;1320;48.128;11.592;2023-03-01T07:00:59;2.20;99.90
2621;DHT22;1320;48.128;11.592;2023-03-01T07:03:25;2.20;99.90
2621;DHT22;1320;48.128;11.592;2023-03-01T07:05:51;2.20;99.90
2621;DHT22;1320;48.128;11.592;2023-03-01T07:08:19;2.20;99.90
2621;DHT22;1320;48.128;11.592;2023-03-01T07:10:46;2.20;99.90
2621;DHT22;1320;48.128;11.592;2023-03-01T07:13:12;2.20;99.90
2621;DHT22;1320;48.128;11.592;2023-03-01T07:15:39;2.20;99.90
2621;DHT22;1320;48.128;11.592;2023-03-01T07:18:05;2.30;99.90
2621;DHT22;1320;48.128;11.592;2023-03-01T07:20:30;2.30;99.90
2621;DHT22;1320;48.128;11.592;2023-03-01T07:22:56;2.30;99.90
2621;DHT22;1320;48.128;11.592;2023-03-01T07:25:24;2.40;99.90
2621;DHT22;1320;48.128;11.592;2023-03-01T07:27:51;2.40;99.90
2621;DHT22;1320;48.128;11.592;2023-03-01T07:30:17;2.30;99.90
2621;DHT22;1320;48.128;11.592;2023-03-01T07:32:43;2.30;99.90
2621;DHT22;1320;48.128;11.592;2023-03-01T07:35:10;2.40;99.90
2621;DHT22;1320;48.128;11.592;2023-03-01T07:37:36;2.40;99.90
2621;DHT22;1320;48.128;11.592;2023-03-01T07:40:02;2.50;99.90
2621;DHT22;1320;48.128;11.592;2023-03-01T07:42:27;2.60;99.90
2621;DHT22;1320;48.128;11.592;2023-03-01T07:44:53;2.50;99.90
2621;DHT22;1320;48.128;11.592;2023-03-01T07:47:19;2.60;99.90
2621;DHT22;1320;48.128;11.592;2023-03-01T07:49:44;2.60;99.90
2621;DHT22;1320;48.128;11.592;2023-03-01T07:52:11;2.60;99.90
2621;DHT22;1320;48.128;11.592;2023-03-01T07:54:37;2.70;99.90
2621;DHT22;1320;48.128;11.592;2023-03-01T07:57:03;2.70;99.90
2621;DHT22;1320;48.128;11.592;2023-03-01T07:59:28;2.70;99.90
2621;DHT22;1320;48.128;11.592;2023-03-01T08:01:56;2.70;99.80
2621;DHT22;1320;48.128;11.592;2023-03-01T08:04:22;2.70;99.90
2621;DHT22;1320;48.128;11.592;2023-03-01T08:06:50;2.70;99.90
2621;DHT22;1320;48.128;11.592;2023-03-01T08:09:16;2.80;99.80
2621;DHT22;1320;48.128;11.592;2023-03-01T08:11:42;2.80;99.80
2621;DHT22;1320;48.128;11.592;2023-03-01T08:14:07;2.80;99.60
2621;DHT22;1320;48.128;11.592;2023-03-01T08:16:34;2.70;99.60
2621;DHT22;1320;48.128;11.592;2023-03-01T08:19:11;2.70;99.50
2621;DHT22;1320;48.128;11.592;2023-03-01T08:21:37;2.70;99.70
2621;DHT22;1320;48.128;11.592;2023-03-01T08:24:04;2.70;99.70
2621;DHT22;1320;48.128;11.592;2023-03-01T08:26:31;2.70;99.70
2621;DHT22;1320;48.128;11.592;2023-03-01T08:28:57;2.70;99.80
2621;DHT22;1320;48.128;11.592;2023-03-01T08:33:53;2.80;99.80
2621;DHT22;1320;48.128;11.592;2023-03-01T08:36:24;2.90;99.80
2621;DHT22;1320;48.128;11.592;2023-03-01T08:38:50;2.90;99.70
2621;DHT22;1320;48.128;11.592;2023-03-01T08:41:15;3.00;99.70
2621;DHT22;1320;48.128;11.592;2023-03-01T08:43:41;3.10;99.90
2621;DHT22;1320;48.128;11.592;2023-03-01T08:46:07;3.10;99.80
2621;DHT22;1320;48.128;11.592;2023-03-01T08:48:33;3.30;99.60
2621;DHT22;1320;48.128;11.592;2023-03-01T08:51:16;3.30;99.40
2621;DHT22;1320;48.128;11.592;2023-03-01T08:53:42;3.40;99.20
2621;DHT22;1320;48.128;11.592;2023-03-01T08:56:09;3.40;99.20
2621;DHT22;1320;48.128;11.592;2023-03-01T08:58:35;3.50;99.10
2621;DHT22;1320;48.128;11.592;2023-03-01T09:01:07;3.50;99.00
2621;DHT22;1320;48.128;11.592;2023-03-01T09:03:32;3.50;99.00
2621;DHT22;1320;48.128;11.592;2023-03-01T09:06:02;3.50;99.10
2621;DHT22;1320;48.128;11.592;2023-03-01T09:08:28;3.60;99.20
2621;DHT22;1320;48.128;11.592;2023-03-01T09:10:54;3.60;99.20
2621;DHT22;1320;48.128;11.592;2023-03-01T09:13:20;3.70;99.20
2621;DHT22;1320;48.128;11.592;2023-03-01T09:15:46;3.70;98.90
2621;DHT22;1320;48.128;11.592;2023-03-01T09:18:11;3.80;99.00
2621;DHT22;1320;48.128;11.592;2023-03-01T09:20:37;3.80;99.10
2621;DHT22;1320;48.128;11.592;2023-03-01T09:23:02;3.90;99.00
2621;DHT22;1320;48.128;11.592;2023-03-01T09:25:28;3.90;98.80
2621;DHT22;1320;48.128;11.592;2023-03-01T09:27:54;4.00;98.80
2621;DHT22;1320;48.128;11.592;2023-03-01T09:30:20;4.00;98.70
2621;DHT22;1320;48.128;11.592;2023-03-01T09:32:46;4.00;98.50
2621;DHT22;1320;48.128;11.592;2023-03-01T09:35:12;4.00;98.50
2621;DHT22;1320;48.128;11.592;2023-03-01T09:37:38;4.00;98.60
2621;DHT22;1320;48.128;11.592;2023-03-01T09:40:18;4.00;98.50
2621;DHT22;1320;48.128;11.592;2023-03-01T09:43:11;4.00;98.50
2621;DHT22;1320;48.128;11.592;2023-03-01T09:45:41;4.00;98.70
2621;DHT22;1320;48.128;11.592;2023-03-01T09:48:15;4.00;98.60
2621;DHT22;1320;48.128;11.592;2023-03-01T09:50:44;4.10;98.70
2621;DHT22;1320;48.128;11.592;2023-03-01T09:53:17;4.10;98.50
2621;DHT22;1320;48.128;11.592;2023-03-01T09:55:48;4.10;98.50
2621;DHT22;1320;48.128;11.592;2023-03-01T09:58:29;4.20;98.40
2621;DHT22;1320;48.128;11.592;2023-03-01T10:01:01;4.30;98.60
2621;DHT22;1320;48.128;11.592;2023-03-01T10:03:34;4.40;98.70
2621;DHT22;1320;48.128;11.592;2023-03-01T10:06:14;4.50;98.70
2621;DHT22;1320;48.128;11.592;2023-03-01T10:11:24;4.70;98.30
2621;DHT22;1320;48.128;11.592;2023-03-01T10:14:03;4.70;98.00
2621;DHT22;1320;48.128;11.592;2023-03-01T10:16:48;4.80;97.90
2621;DHT22;1320;48.128;11.592;2023-03-01T10:19:23;4.80;98.00
2621;DHT22;1320;48.128;11.592;2023-03-01T10:21:51;4.80;97.90
2621;DHT22;1320;48.128;11.592;2023-03-01T10:24:18;4.70;97.90
2621;DHT22;1320;48.128;11.592;2023-03-01T10:27:06;4.70;97.80
2621;DHT22;1320;48.128;11.592;2023-03-01T10:30:16;4.70;98.00
2621;DHT22;1320;48.128;11.592;2023-03-01T10:32:38;4.70;97.60
2621;DHT22;1320;48.128;11.592;2023-03-01T10:35:26;4.80;97.50
2621;DHT22;1320;48.128;11.592;2023-03-01T10:40:49;5.00;97.50
2621;DHT22;1320;48.128;11.592;2023-03-01T10:43:15;5.10;97.20
2621;DHT22;1320;48.128;11.592;2023-03-01T10:45:40;5.20;97.30
2621;DHT22;1320;48.128;11.592;2023-03-01T10:50:35;5.30;97.30
2621;DHT22;1320;48.128;11.592;2023-03-01T10:53:04;5.40;97.00
2621;DHT22;1320;48.128;11.592;2023-03-01T10:55:35;5.50;97.00
2621;DHT22;1320;48.128;11.592;2023-03-01T11:00:32;5.70;97.00
2621;DHT22;1320;48.128;11.592;2023-03-01T11:05:25;6.10;96.30
2621;DHT22;1320;48.128;11.592;2023-03-01T11:07:59;6.20;96.50
2621;DHT22;1320;48.128;11.592;2023-03-01T11:10:28;6.30;96.40
2621;DHT22;1320;48.128;11.592;2023-03-01T11:13:05;6.50;96.00
2621;DHT22;1320;48.128;11.592;2023-03-01T11:15:31;6.70;96.00
2621;DHT22;1320;48.128;11.592;2023-03-01T11:17:57;6.90;95.40
2621;DHT22;1320;48.128;11.592;2023-03-01T11:20:30;7.10;95.30
2621;DHT22;1320;48.128;11.592;2023-03-01T11:23:01;7.40;95.00
2621;DHT22;1320;48.128;11.592;2023-03-01T11:25:33;7.50;94.70
2621;DHT22;1320;48.128;11.592;2023-03-01T11:28:02;7.70;94.80
2621;DHT22;1320;48.128;11.592;2023-03-01T11:33:12;8.20;94.80
2621;DHT22;1320;48.128;11.592;2023-03-01T11:35:53;8.60;94.70
2621;DHT22;1320;48.128;11.592;2023-03-01T11:38:26;8.90;94.20
2621;DHT22;1320;48.128;11.592;2023-03-01T11:41:05;9.20;93.50
2621;DHT22;1320;48.128;11.592;2023-03-01T11:54:52;9.10;92.60
2621;DHT22;1320;48.128;11.592;2023-03-01T12:12:08;9.40;92.40
2621;DHT22;1320;48.128;11.592;2023-03-01T12:42:01;9.90;92.00
2621;DHT22;1320;48.128;11.592;2023-03-01T12:49:59;10.30;91.00
2621;DHT22;1320;48.128;11.592;2023-03-01T12:52:37;10.30;90.80
2621;DHT22;1320;48.128;11.592;2023-03-01T12:55:17;10.40;91.30
2621;DHT22;1320;48.128;11.592;2023-03-01T12:58:02;10.50;91.00
2621;DHT22;1320;48.128;11.592;2023-03-01T13:00:59;10.60;90.90
2621;DHT22;1320;48.128;11.592;2023-03-01T13:09:05;11.10;90.30
2621;DHT22;1320;48.128;11.592;2023-03-01T13:11:34;11.20;90.20
2621;DHT22;1320;48.128;11.592;2023-03-01T13:16:54;11.30;90.00
2621;DHT22;1320;48.128;11.592;2023-03-01T13:19:24;11.40;89.60
2621;DHT22;1320;48.128;11.592;2023-03-01T13:21:53;11.30;89.60
2621;DHT22;1320;48.128;11.592;2023-03-01T13:24:38;11.30;90.00
2621;DHT22;1320;48.128;11.592;2023-03-01T13:29:53;11.30;89.90
2621;DHT22;1320;48.128;11.592;2023-03-01T13:32:28;11.30;90.10
2621;DHT22;1320;48.128;11.592;2023-03-01T13:37:33;11.50;89.80
2621;DHT22;1320;48.128;11.592;2023-03-01T13:40:58;11.50;90.10
2621;DHT22;1320;48.128;11.592;2023-03-01T13:42:50;11.60;90.10
2621;DHT22;1320;48.128;11.592;2023-03-01T13:47:46;11.70;89.40
2621;DHT22;1320;48.128;11.592;2023-03-01T13:50:23;11.80;89.80
2621;DHT22;1320;48.128;11.592;2023-03-01T13:53:05;12.00;89.20
2621;DHT22;1320;48.128;11.592;2023-03-01T13:55:43;12.10;88.90
2621;DHT22;1320;48.128;11.592;2023-03-01T13:58:19;12.10;88.50
2621;DHT22;1320;48.128;11.592;2023-03-01T14:00:47;12.20;88.30
2621;DHT22;1320;48.128;11.592;2023-03-01T14:03:15;12.20;88.20
2621;DHT22;1320;48.128;11.592;2023-03-01T14:08:29;12.10;89.10
2621;DHT22;1320;48.128;11.592;2023-03-01T14:16:32;12.30;88.10
2621;DHT22;1320;48.128;11.592;2023-03-01T14:19:19;12.30;88.00
2621;DHT22;1320;48.128;11.592;2023-03-01T14:24:39;12.50;88.00
2621;DHT22;1320;48.128;11.592;2023-03-01T14:27:12;12.60;88.00
2621;DHT22;1320;48.128;11.592;2023-03-01T14:29:39;12.80;87.60
2621;DHT22;1320;48.128;11.592;2023-03-01T14:32:24;12.90;87.20
2621;DHT22;1320;48.128;11.592;2023-03-01T14:34:51;13.00;86.80
2621;DHT22;1320;48.128;11.592;2023-03-01T14:39:51;13.00;86.50
2621;DHT22;1320;48.128;11.592;2023-03-01T14:42:18;12.90;87.00
2621;DHT22;1320;48.128;11.592;2023-03-01T14:44:47;13.00;86.60
2621;DHT22;1320;48.128;11.592;2023-03-01T14:47:26;13.10;86.80
2621;DHT22;1320;48.128;11.592;2023-03-01T14:52:34;13.20;86.30
2621;DHT22;1320;48.128;11.592;2023-03-01T14:55:02;13.30;86.30
2621;DHT22;1320;48.128;11.592;2023-03-01T14:57:29;13.20;86.40
2621;DHT22;1320;48.128;11.592;2023-03-01T14:59:58;13.20;86.60
2621;DHT22;1320;48.128;11.592;2023-03-01T15:02:26;13.30;86.70
2621;DHT22;1320;48.128;11.592;2023-03-01T15:04:58;13.30;86.70
2621;DHT22;1320;48.128;11.592;2023-03-01T15:07:29;13.40;86.70
2621;DHT22;1320;48.128;11.592;2023-03-01T15:09:55;13.40;86.80
2621;DHT22;1320;48.128;11.592;2023-03-01T15:12:40;13.60;86.90
2621;DHT22;1320;48.128;11.592;2023-03-01T15:17:56;13.80;86.40
2621;DHT22;1320;48.128;11.592;2023-03-01T15:20:24;13.80;86.10
2621;DHT22;1320;48.128;11.592;2023-03-01T15:22:52;13.80;86.00
2621;DHT22;1320;48.128;11.592;2023-03-01T15:25:19;13.80;86.10
2621;DHT22;1320;48.128;11.592;2023-03-01T15:27:47;13.80;85.80
2621;DHT22;1320;48.128;11.592;2023-03-01T15:30:18;13.80;85.90
2621;DHT22;1320;48.128;11.592;2023-03-01T15:32:44;13.70;85.70
2621;DHT22;1320;48.128;11.592;2023-03-01T15:35:43;13.50;86.20
2621;DHT22;1320;48.128;11.592;2023-03-01T15:38:36;13.10;86.40
2621;DHT22;1320;48.128;11.592;2023-03-01T15:41:45;12.70;87.50
2621;DHT22;1320;48.128;11.592;2023-03-01T15:44:30;12.20;88.00
2621;DHT22;1320;48.128;11.592;2023-03-01T15:46:56;11.80;89.00
2621;DHT22;1320;48.128;11.592;2023-03-01T15:49:36;11.40;90.10
2621;DHT22;1320;48.128;11.592;2023-03-01T15:52:03;11.20;90.30
2621;DHT22;1320;48.128;11.592;2023-03-01T15:54:29;11.00;90.60
2621;DHT22;1320;48.128;11.592;2023-03-01T15:56:55;10.90;90.90
2621;DHT22;1320;48.128;11.592;2023-03-01T15:59:21;10.80;91.10
2621;DHT22;1320;48.128;11.592;2023-03-01T16:01:48;10.60;91.10
2621;DHT22;1320;48.128;11.592;2023-03-01T16:04:16;10.50;91.30
2621;DHT22;1320;48.128;11.592;2023-03-01T16:06:50;10.40;91.70
2621;DHT22;1320;48.128;11.592;2023-03-01T16:09:24;10.20;92.00
2621;DHT22;1320;48.128;11.592;2023-03-01T16:11:52;10.10;92.20
2621;DHT22;1320;48.128;11.592;2023-03-01T16:14:18;10.00;92.50
2621;DHT22;1320;48.128;11.592;2023-03-01T16:16:44;9.90;93.40
2621;DHT22;1320;48.128;11.592;2023-03-01T16:19:10;9.70;93.20
2621;DHT22;1320;48.128;11.592;2023-03-01T16:21:37;9.70;93.50
2621;DHT22;1320;48.128;11.592;2023-03-01T16:24:03;9.60;93.60
2621;DHT22;1320;48.128;11.592;2023-03-01T16:26:29;9.60;93.80
2621;DHT22;1320;48.128;11.592;2023-03-01T16:28:56;9.50;93.80
2621;DHT22;1320;48.128;11.592;2023-03-01T16:31:22;9.40;93.90
2621;DHT22;1320;48.128;11.592;2023-03-01T16:33:48;9.40;94.10
2621;DHT22;1320;48.128;11.592;2023-03-01T16:36:19;9.40;94.30
2621;DHT22;1320;48.128;11.592;2023-03-01T16:38:45;9.30;94.40
2621;DHT22;1320;48.128;11.592;2023-03-01T16:41:13;9.20;94.40
2621;DHT22;1320;48.128;11.592;2023-03-01T16:43:39;9.20;94.50
2621;DHT22;1320;48.128;11.592;2023-03-01T16:46:20;9.20;94.70
2621;DHT22;1320;48.128;11.592;2023-03-01T16:48:46;9.10;94.80
2621;DHT22;1320;48.128;11.592;2023-03-01T16:51:12;9.10;94.90
2621;DHT22;1320;48.128;11.592;2023-03-01T16:53:38;9.00;95.00
2621;DHT22;1320;48.128;11.592;2023-03-01T16:56:06;9.00;95.10
2621;DHT22;1320;48.128;11.592;2023-03-01T16:58:32;9.00;95.20
2621;DHT22;1320;48.128;11.592;2023-03-01T17:01:04;8.90;95.30
2621;DHT22;1320;48.128;11.592;2023-03-01T17:03:31;8.80;95.40
2621;DHT22;1320;48.128;11.592;2023-03-01T17:05:56;8.80;95.60
2621;DHT22;1320;48.128;11.592;2023-03-01T17:08:22;8.80;95.70
2621;DHT22;1320;48.128;11.592;2023-03-01T17:10:47;8.70;95.80
2621;DHT22;1320;48.128;11.592;2023-03-01T17:13:13;8.70;96.00
2621;DHT22;1320;48.128;11.592;2023-03-01T17:15:42;8.60;95.90
2621;DHT22;1320;48.128;11.592;2023-03-01T17:18:08;8.40;95.80
2621;DHT22;1320;48.128;11.592;2023-03-01T17:20:34;8.20;95.90
2621;DHT22;1320;48.128;11.592;2023-03-01T17:23:00;8.00;96.10
2621;DHT22;1320;48.128;11.592;2023-03-01T17:25:26;7.80;96.30
2621;DHT22;1320;48.128;11.592;2023-03-01T17:27:52;7.60;96.50
2621;DHT22;1320;48.128;11.592;2023-03-01T17:30:18;7.50;96.80
2621;DHT22;1320;48.128;11.592;2023-03-01T17:32:43;7.30;96.90
2621;DHT22;1320;48.128;11.592;2023-03-01T17:35:09;7.10;97.00
2621;DHT22;1320;48.128;11.592;2023-03-01T17:37:37;6.90;97.40
2621;DHT22;1320;48.128;11.592;2023-03-01T17:40:04;6.70;97.50
2621;DHT22;1320;48.128;11.592;2023-03-01T17:42:31;6.60;97.80
2621;DHT22;1320;48.128;11.592;2023-03-01T17:44:56;6.50;97.90
2621;DHT22;1320;48.128;11.592;2023-03-01T17:47:22;6.40;98.20
2621;DHT22;1320;48.128;11.592;2023-03-01T17:49:48;6.30;98.20
2621;DHT22;1320;48.128;11.592;2023-03-01T17:52:14;6.30;98.40
2621;DHT22;1320;48.128;11.592;2023-03-01T17:54:39;6.20;98.40
2621;DHT22;1320;48.128;11.592;2023-03-01T17:57:05;6.10;98.60
2621;DHT22;1320;48.128;11.592;2023-03-01T17:59:31;6.10;98.90
2621;DHT22;1320;48.128;11.592;2023-03-01T18:01:58;6.00;98.90
2621;DHT22;1320;48.128;11.592;2023-03-01T18:04:27;5.90;98.90
2621;DHT22;1320;48.128;11.592;2023-03-01T18:06:53;5.90;99.00
2621;DHT22;1320;48.128;11.592;2023-03-01T18:09:18;5.90;99.10
2621;DHT22;1320;48.128;11.592;2023-03-01T18:11:44;5.80;99.10
2621;DHT22;1320;48.128;11.592;2023-03-01T18:14:10;5.80;99.30
2621;DHT22;1320;48.128;11.592;2023-03-01T18:16:35;5.70;99.40
2621;DHT22;1320;48.128;11.592;2023-03-01T18:19:04;5.70;99.50